sensor_id;sensor_type;location;lat;lon;timestamp;P1;P2;P0
77515;PMS5003;66627;29.424;-98.496;2023-04-03T00:01:40;26;25;
77515;PMS5003;66627;29.424;-98.496;2023-04-03T00:04:06;27;24;
77515;PMS5003;66627;29.424;-98.496;2023-04-03T00:06:31;32;31;
77515;PMS5003;66627;29.424;-98.496;2023-04-03T00:08:57;26;23;
77515;PMS5003;66627;29.424;-98.496;2023-04-03T00:11:23;25;23;
77515;PMS5003;66627;29.424;-98.496;2023-04-03T00:13:49;24;23;
77515;PMS5003;66627;29.424;-98.496;2023-04-03T00:16:14;28;27;
77515;PMS5003;66627;29.424;-98.496;2023-04-03T00:18:40;26;25;
77515;PMS5003;66627;29.424;-98.496;2023-04-03T00:21:06;25;24;
77515;PMS5003;66627;29.424;-98.496;2023-04-03T00:23:31;28;28;
77515;PMS5003;66627;29.424;-98.496;2023-04-03T00:25:57;27;24;
77515;PMS5003;66627;29.424;-98.496;2023-04-03T00:28:22;29;27;
77515;PMS5003;66627;29.424;-98.496;2023-04-03T00:30:48;27;26;
77515;PMS5003;66627;29.424;-98.496;2023-04-03T00:33:13;31;26;
77515;PMS5003;66627;29.424;-98.496;2023-04-03T00:35:40;26;25;
77515;PMS5003;66627;29.424;-98.496;2023-04-03T00:38:05;27;27;
77515;PMS5003;66627;29.424;-98.496;2023-04-03T00:40:33;27;27;
77515;PMS5003;66627;29.424;-98.496;2023-04-03T00:42:57;32;29;
77515;PMS5003;66627;29.424;-98.496;2023-04-03T00:45:27;33;30;
77515;PMS5003;66627;29.424;-98.496;2023-04-03T00:47:46;28;27;
77515;PMS5003;66627;29.424;-98.496;2023-04-03T00:50:12;30;26;
77515;PMS5003;66627;29.424;-98.496;2023-04-03T00:52:37;31;29;
77515;PMS5003;66627;29.424;-98.496;2023-04-03T00:55:03;32;29;
77515;PMS5003;66627;29.424;-98.496;2023-04-03T00:57:28;34;29;
77515;PMS5003;66627;29.424;-98.496;2023-04-03T00:59:54;26;25;
77515;PMS5003;66627;29.424;-98.496;2023-04-03T01:02:18;27;27;
77515;PMS5003;66627;29.424;-98.496;2023-04-03T01:04:44;29;28;
77515;PMS5003;66627;29.424;-98.496;2023-04-03T01:07:10;30;28;
77515;PMS5003;66627;29.424;-98.496;2023-04-03T01:09:36;29;27;
77515;PMS5003;66627;29.424;-98.496;2023-04-03T01:14:26;28;26;
77515;PMS5003;66627;29.424;-98.496;2023-04-03T01:16:52;25;23;
77515;PMS5003;66627;29.424;-98.496;2023-04-03T01:19:17;24;24;
77515;PMS5003;66627;29.424;-98.496;2023-04-03T01:24:12;30;28;
77515;PMS5003;66627;29.424;-98.496;2023-04-03T01:26:34;27;25;
77515;PMS5003;66627;29.424;-98.496;2023-04-03T01:28:59;31;31;
77515;PMS5003;66627;29.424;-98.496;2023-04-03T01:31:25;28;28;
77515;PMS5003;66627;29.424;-98.496;2023-04-03T01:33:50;33;30;
77515;PMS5003;66627;29.424;-98.496;2023-04-03T01:36:16;26;24;
77515;PMS5003;66627;29.424;-98.496;2023-04-03T01:38:40;25;24;
77515;PMS5003;66627;29.424;-98.496;2023-04-03T01:41:05;27;24;
77515;PMS5003;66627;29.424;-98.496;2023-04-03T01:43:31;29;25;
77515;PMS5003;66627;29.424;-98.496;2023-04-03T01:45:56;25;25;
77515;PMS5003;66627;29.424;-98.496;2023-04-03T01:48:22;25;25;
77515;PMS5003;66627;29.424;-98.496;2023-04-03T01:50:47;28;25;
77515;PMS5003;66627;29.424;-98.496;2023-04-03T01:53:13;31;28;
77515;PMS5003;66627;29.424;-98.496;2023-04-03T01:55:38;28;27;
77515;PMS5003;66627;29.424;-98.496;2023-04-03T01:58:03;25;24;
77515;PMS5003;66627;29.424;-98.496;2023-04-03T02:00:28;24;23;
77515;PMS5003;66627;29.424;-98.496;2023-04-03T02:02:54;24;24;
77515;PMS5003;66627;29.424;-98.496;2023-04-03T02:05:19;28;26;
77515;PMS5003;66627;29.424;-98.496;2023-04-03T02:07:45;23;23;
77515;PMS5003;66627;29.424;-98.496;2023-04-03T02:10:10;27;27;
77515;PMS5003;66627;29.424;-98.496;2023-04-03T02:12:35;27;23;
77515;PMS5003;66627;29.424;-98.496;2023-04-03T02:15:00;24;24;
77515;PMS5003;66627;29.424;-98.496;2023-04-03T02:17:25;29;28;
77515;PMS5003;66627;29.424;-98.496;2023-04-03T02:19:51;29;27;
77515;PMS5003;66627;29.424;-98.496;2023-04-03T02:22:16;24;24;
77515;PMS5003;66627;29.424;-98.496;2023-04-03T02:24:42;24;24;
77515;PMS5003;66627;29.424;-98.496;2023-04-03T02:27:07;27;27;
77515;PMS5003;66627;29.424;-98.496;2023-04-03T02:29:32;25;25;
77515;PMS5003;66627;29.424;-98.496;2023-04-03T02:31:58;34;30;
77515;PMS5003;66627;29.424;-98.496;2023-04-03T02:34:23;31;30;
77515;PMS5003;66627;29.424;-98.496;2023-04-03T02:36:48;29;29;
77515;PMS5003;66627;29.424;-98.496;2023-04-03T02:39:13;29;26;
77515;PMS5003;66627;29.424;-98.496;2023-04-03T02:41:39;34;30;
77515;PMS5003;66627;29.424;-98.496;2023-04-03T02:44:05;24;24;
77515;PMS5003;66627;29.424;-98.496;2023-04-03T02:46:30;24;24;
77515;PMS5003;66627;29.424;-98.496;2023-04-03T02:48:55;26;26;
77515;PMS5003;66627;29.424;-98.496;2023-04-03T02:51:21;30;24;
77515;PMS5003;66627;29.424;-98.496;2023-04-03T02:53:46;27;27;
77515;PMS5003;66627;29.424;-98.496;2023-04-03T02:56:12;24;24;
77515;PMS5003;66627;29.424;-98.496;2023-04-03T02:58:37;29;26;
77515;PMS5003;66627;29.424;-98.496;2023-04-03T03:01:03;27;22;
77515;PMS5003;66627;29.424;-98.496;2023-04-03T03:03:29;27;27;
77515;PMS5003;66627;29.424;-98.496;2023-04-03T03:08:19;26;24;
77515;PMS5003;66627;29.424;-98.496;2023-04-03T03:10:45;28;27;
77515;PMS5003;66627;29.424;-98.496;2023-04-03T03:13:11;28;28;
77515;PMS5003;66627;29.424;-98.496;2023-04-03T03:15:35;30;27;
77515;PMS5003;66627;29.424;-98.496;2023-04-03T03:18:02;27;27;
77515;PMS5003;66627;29.424;-98.496;2023-04-03T03:20:27;27;25;
77515;PMS5003;66627;29.424;-98.496;2023-04-03T03:22:53;22;22;
77515;PMS5003;66627;29.424;-98.496;2023-04-03T03:25:18;28;25;
77515;PMS5003;66627;29.424;-98.496;2023-04-03T03:27:44;28;28;
77515;PMS5003;66627;29.424;-98.496;2023-04-03T03:30:09;26;25;
77515;PMS5003;66627;29.424;-98.496;2023-04-03T03:32:34;31;28;
77515;PMS5003;66627;29.424;-98.496;2023-04-03T03:34:59;27;26;
77515;PMS5003;66627;29.424;-98.496;2023-04-03T03:37:25;24;24;
77515;PMS5003;66627;29.424;-98.496;2023-04-03T03:39:50;28;26;
77515;PMS5003;66627;29.424;-98.496;2023-04-03T03:42:16;30;26;
77515;PMS5003;66627;29.424;-98.496;2023-04-03T03:44:42;29;25;
77515;PMS5003;66627;29.424;-98.496;2023-04-03T03:47:06;24;24;
77515;PMS5003;66627;29.424;-98.496;2023-04-03T03:49:32;24;23;
77515;PMS5003;66627;29.424;-98.496;2023-04-03T03:51:57;24;24;
77515;PMS5003;66627;29.424;-98.496;2023-04-03T03:54:23;24;24;
77515;PMS5003;66627;29.424;-98.496;2023-04-03T03:56:49;28;27;
77515;PMS5003;66627;29.424;-98.496;2023-04-03T03:59:14;20;20;
77515;PMS5003;66627;29.424;-98.496;2023-04-03T04:01:40;29;27;
77515;PMS5003;66627;29.424;-98.496;2023-04-03T04:04:05;28;26;
77515;PMS5003;66627;29.424;-98.496;2023-04-03T04:06:30;26;25;
77515;PMS5003;66627;29.424;-98.496;2023-04-03T04:08:56;24;24;
77515;PMS5003;66627;29.424;-98.496;2023-04-03T04:11:22;24;24;
77515;PMS5003;66627;29.424;-98.496;2023-04-03T04:13:48;22;22;
77515;PMS5003;66627;29.424;-98.496;2023-04-03T04:16:13;25;24;
77515;PMS5003;66627;29.424;-98.496;2023-04-03T04:18:38;28;27;
77515;PMS5003;66627;29.424;-98.496;2023-04-03T04:21:03;29;28;
77515;PMS5003;66627;29.424;-98.496;2023-04-03T04:23:29;23;21;
77515;PMS5003;66627;29.424;-98.496;2023-04-03T04:25:54;28;28;
77515;PMS5003;66627;29.424;-98.496;2023-04-03T04:28:20;23;23;
77515;PMS5003;66627;29.424;-98.496;2023-04-03T04:30:45;25;25;
77515;PMS5003;66627;29.424;-98.496;2023-04-03T04:33:11;27;27;
77515;PMS5003;66627;29.424;-98.496;2023-04-03T04:35:36;25;25;
77515;PMS5003;66627;29.424;-98.496;2023-04-03T04:40:27;27;23;
77515;PMS5003;66627;29.424;-98.496;2023-04-03T04:42:52;24;21;
77515;PMS5003;66627;29.424;-98.496;2023-04-03T04:45:17;22;22;
77515;PMS5003;66627;29.424;-98.496;2023-04-03T04:47:42;25;25;
77515;PMS5003;66627;29.424;-98.496;2023-04-03T04:50:08;28;28;
77515;PMS5003;66627;29.424;-98.496;2023-04-03T04:52:34;24;20;
77515;PMS5003;66627;29.424;-98.496;2023-04-03T04:54:59;24;24;
77515;PMS5003;66627;29.424;-98.496;2023-04-03T04:57:25;27;23;
77515;PMS5003;66627;29.424;-98.496;2023-04-03T04:59:51;28;26;
77515;PMS5003;66627;29.424;-98.496;2023-04-03T05:02:16;29;27;
77515;PMS5003;66627;29.424;-98.496;2023-04-03T05:04:41;28;26;
77515;PMS5003;66627;29.424;-98.496;2023-04-03T05:07:06;26;24;
77515;PMS5003;66627;29.424;-98.496;2023-04-03T05:09:31;25;25;
77515;PMS5003;66627;29.424;-98.496;2023-04-03T05:11:56;28;26;
77515;PMS5003;66627;29.424;-98.496;2023-04-03T05:14:22;24;23;
77515;PMS5003;66627;29.424;-98.496;2023-04-03T05:16:47;25;23;
77515;PMS5003;66627;29.424;-98.496;2023-04-03T05:19:13;24;23;
77515;PMS5003;66627;29.424;-98.496;2023-04-03T05:21:38;23;23;
77515;PMS5003;66627;29.424;-98.496;2023-04-03T05:24:03;29;27;
77515;PMS5003;66627;29.424;-98.496;2023-04-03T05:26:28;30;26;
77515;PMS5003;66627;29.424;-98.496;2023-04-03T05:28:54;26;24;
77515;PMS5003;66627;29.424;-98.496;2023-04-03T05:31:20;24;22;
77515;PMS5003;66627;29.424;-98.496;2023-04-03T05:33:46;24;22;
77515;PMS5003;66627;29.424;-98.496;2023-04-03T05:36:11;22;22;
77515;PMS5003;66627;29.424;-98.496;2023-04-03T05:38:37;26;24;
77515;PMS5003;66627;29.424;-98.496;2023-04-03T05:41:02;27;24;
77515;PMS5003;66627;29.424;-98.496;2023-04-03T05:43:28;25;24;
77515;PMS5003;66627;29.424;-98.496;2023-04-03T05:45:54;30;30;
77515;PMS5003;66627;29.424;-98.496;2023-04-03T05:48:19;26;24;
77515;PMS5003;66627;29.424;-98.496;2023-04-03T05:50:44;26;26;
77515;PMS5003;66627;29.424;-98.496;2023-04-03T05:53:10;25;25;
77515;PMS5003;66627;29.424;-98.496;2023-04-03T05:55:36;24;20;
77515;PMS5003;66627;29.424;-98.496;2023-04-03T05:58:05;23;22;
77515;PMS5003;66627;29.424;-98.496;2023-04-03T06:00:26;28;25;
77515;PMS5003;66627;29.424;-98.496;2023-04-03T06:02:52;25;24;
77515;PMS5003;66627;29.424;-98.496;2023-04-03T06:05:19;24;24;
77515;PMS5003;66627;29.424;-98.496;2023-04-03T06:07:43;28;27;
77515;PMS5003;66627;29.424;-98.496;2023-04-03T06:10:10;29;28;
77515;PMS5003;66627;29.424;-98.496;2023-04-03T06:12:33;30;30;
77515;PMS5003;66627;29.424;-98.496;2023-04-03T06:14:59;27;25;
77515;PMS5003;66627;29.424;-98.496;2023-04-03T06:17:24;23;23;
77515;PMS5003;66627;29.424;-98.496;2023-04-03T06:19:50;23;23;
77515;PMS5003;66627;29.424;-98.496;2023-04-03T06:22:15;32;29;
77515;PMS5003;66627;29.424;-98.496;2023-04-03T06:24:42;23;22;
77515;PMS5003;66627;29.424;-98.496;2023-04-03T06:27:06;24;24;
77515;PMS5003;66627;29.424;-98.496;2023-04-03T06:29:32;26;23;
77515;PMS5003;66627;29.424;-98.496;2023-04-03T06:31:57;27;25;
77515;PMS5003;66627;29.424;-98.496;2023-04-03T06:34:23;25;24;
77515;PMS5003;66627;29.424;-98.496;2023-04-03T06:36:48;26;23;
77515;PMS5003;66627;29.424;-98.496;2023-04-03T06:39:14;32;26;
77515;PMS5003;66627;29.424;-98.496;2023-04-03T06:41:39;26;25;
77515;PMS5003;66627;29.424;-98.496;2023-04-03T06:44:05;31;30;
77515;PMS5003;66627;29.424;-98.496;2023-04-03T06:46:31;29;27;
77515;PMS5003;66627;29.424;-98.496;2023-04-03T06:48:56;31;27;
77515;PMS5003;66627;29.424;-98.496;2023-04-03T06:51:23;25;25;
77515;PMS5003;66627;29.424;-98.496;2023-04-03T06:53:47;25;25;
77515;PMS5003;66627;29.424;-98.496;2023-04-03T06:56:13;31;29;
77515;PMS5003;66627;29.424;-98.496;2023-04-03T06:58:38;27;25;
77515;PMS5003;66627;29.424;-98.496;2023-04-03T07:01:04;32;31;
77515;PMS5003;66627;29.424;-98.496;2023-04-03T07:03:29;30;27;
77515;PMS5003;66627;29.424;-98.496;2023-04-03T07:05:54;28;27;
77515;PMS5003;66627;29.424;-98.496;2023-04-03T07:08:19;29;29;
77515;PMS5003;66627;29.424;-98.496;2023-04-03T07:10:45;27;25;
77515;PMS5003;66627;29.424;-98.496;2023-04-03T07:13:10;31;31;
77515;PMS5003;66627;29.424;-98.496;2023-04-03T07:15:35;30;27;
77515;PMS5003;66627;29.424;-98.496;2023-04-03T07:18:00;27;26;
77515;PMS5003;66627;29.424;-98.496;2023-04-03T07:20:26;32;30;
77515;PMS5003;66627;29.424;-98.496;2023-04-03T07:22:51;31;29;
77515;PMS5003;66627;29.424;-98.496;2023-04-03T07:25:17;27;26;
77515;PMS5003;66627;29.424;-98.496;2023-04-03T07:27:42;33;32;
77515;PMS5003;66627;29.424;-98.496;2023-04-03T07:30:08;29;29;
77515;PMS5003;66627;29.424;-98.496;2023-04-03T07:32:33;28;28;
77515;PMS5003;66627;29.424;-98.496;2023-04-03T07:34:59;31;31;
77515;PMS5003;66627;29.424;-98.496;2023-04-03T07:37:23;28;28;
77515;PMS5003;66627;29.424;-98.496;2023-04-03T07:39:49;28;25;
77515;PMS5003;66627;29.424;-98.496;2023-04-03T07:42:14;32;31;
77515;PMS5003;66627;29.424;-98.496;2023-04-03T07:44:41;31;30;
77515;PMS5003;66627;29.424;-98.496;2023-04-03T07:47:06;32;30;
77515;PMS5003;66627;29.424;-98.496;2023-04-03T07:49:31;30;29;
77515;PMS5003;66627;29.424;-98.496;2023-04-03T07:51:56;31;29;
77515;PMS5003;66627;29.424;-98.496;2023-04-03T07:54:21;32;30;
77515;PMS5003;66627;29.424;-98.496;2023-04-03T07:56:47;28;28;
77515;PMS5003;66627;29.424;-98.496;2023-04-03T07:59:13;28;27;
77515;PMS5003;66627;29.424;-98.496;2023-04-03T08:01:38;32;31;
77515;PMS5003;66627;29.424;-98.496;2023-04-03T08:04:03;35;33;
77515;PMS5003;66627;29.424;-98.496;2023-04-03T08:06:30;40;35;
77515;PMS5003;66627;29.424;-98.496;2023-04-03T08:08:54;34;31;
77515;PMS5003;66627;29.424;-98.496;2023-04-03T08:11:19;34;32;
77515;PMS5003;66627;29.424;-98.496;2023-04-03T08:13:44;28;27;
77515;PMS5003;66627;29.424;-98.496;2023-04-03T08:16:10;37;34;
77515;PMS5003;66627;29.424;-98.496;2023-04-03T08:18:35;30;28;
77515;PMS5003;66627;29.424;-98.496;2023-04-03T08:21:00;35;33;
77515;PMS5003;66627;29.424;-98.496;2023-04-03T08:23:25;31;29;
77515;PMS5003;66627;29.424;-98.496;2023-04-03T08:25:51;37;32;
77515;PMS5003;66627;29.424;-98.496;2023-04-03T08:28:16;36;32;
77515;PMS5003;66627;29.424;-98.496;2023-04-03T08:30:42;29;28;
77515;PMS5003;66627;29.424;-98.496;2023-04-03T08:33:06;37;33;
77515;PMS5003;66627;29.424;-98.496;2023-04-03T08:35:32;40;37;
77515;PMS5003;66627;29.424;-98.496;2023-04-03T08:37:57;26;25;
77515;PMS5003;66627;29.424;-98.496;2023-04-03T08:40:23;30;29;
77515;PMS5003;66627;29.424;-98.496;2023-04-03T08:42:51;28;26;
77515;PMS5003;66627;29.424;-98.496;2023-04-03T08:45:14;29;29;
77515;PMS5003;66627;29.424;-98.496;2023-04-03T08:47:40;32;27;
77515;PMS5003;66627;29.424;-98.496;2023-04-03T08:50:05;31;30;
77515;PMS5003;66627;29.424;-98.496;2023-04-03T08:52:31;32;31;
77515;PMS5003;66627;29.424;-98.496;2023-04-03T08:54:56;31;30;
77515;PMS5003;66627;29.424;-98.496;2023-04-03T08:57:24;27;25;
77515;PMS5003;66627;29.424;-98.496;2023-04-03T08:59:46;32;28;
77515;PMS5003;66627;29.424;-98.496;2023-04-03T09:02:21;30;27;
77515;PMS5003;66627;29.424;-98.496;2023-04-03T09:04:37;32;32;
77515;PMS5003;66627;29.424;-98.496;2023-04-03T09:07:05;31;30;
77515;PMS5003;66627;29.424;-98.496;2023-04-03T09:09:31;30;30;
77515;PMS5003;66627;29.424;-98.496;2023-04-03T09:11:55;28;28;
77515;PMS5003;66627;29.424;-98.496;2023-04-03T09:14:21;35;31;
77515;PMS5003;66627;29.424;-98.496;2023-04-03T09:16:48;35;30;
77515;PMS5003;66627;29.424;-98.496;2023-04-03T09:19:15;29;29;
77515;PMS5003;66627;29.424;-98.496;2023-04-03T09:21:38;32;31;
77515;PMS5003;66627;29.424;-98.496;2023-04-03T09:24:03;29;26;
77515;PMS5003;66627;29.424;-98.496;2023-04-03T09:26:28;32;29;
77515;PMS5003;66627;29.424;-98.496;2023-04-03T09:28:54;35;30;
77515;PMS5003;66627;29.424;-98.496;2023-04-03T09:31:20;34;31;
77515;PMS5003;66627;29.424;-98.496;2023-04-03T09:33:44;35;33;
77515;PMS5003;66627;29.424;-98.496;2023-04-03T09:36:10;34;32;
77515;PMS5003;66627;29.424;-98.496;2023-04-03T09:38:35;36;33;
77515;PMS5003;66627;29.424;-98.496;2023-04-03T09:41:04;34;33;
77515;PMS5003;66627;29.424;-98.496;2023-04-03T09:43:27;36;34;
77515;PMS5003;66627;29.424;-98.496;2023-04-03T09:45:51;34;27;
77515;PMS5003;66627;29.424;-98.496;2023-04-03T09:48:18;32;31;
77515;PMS5003;66627;29.424;-98.496;2023-04-03T09:53:25;36;33;
77515;PMS5003;66627;29.424;-98.496;2023-04-03T09:55:41;38;35;
77515;PMS5003;66627;29.424;-98.496;2023-04-03T09:58:00;36;33;
77515;PMS5003;66627;29.424;-98.496;2023-04-03T10:00:25;31;28;
77515;PMS5003;66627;29.424;-98.496;2023-04-03T10:02:50;38;34;
77515;PMS5003;66627;29.424;-98.496;2023-04-03T10:07:41;33;31;
77515;PMS5003;66627;29.424;-98.496;2023-04-03T10:12:31;34;33;
77515;PMS5003;66627;29.424;-98.496;2023-04-03T10:14:58;32;29;
77515;PMS5003;66627;29.424;-98.496;2023-04-03T10:17:25;34;34;
77515;PMS5003;66627;29.424;-98.496;2023-04-03T10:19:47;38;33;
77515;PMS5003;66627;29.424;-98.496;2023-04-03T10:22:15;32;30;
77515;PMS5003;66627;29.424;-98.496;2023-04-03T10:24:40;28;28;
77515;PMS5003;66627;29.424;-98.496;2023-04-03T10:27:03;33;30;
77515;PMS5003;66627;29.424;-98.496;2023-04-03T10:29:33;34;32;
77515;PMS5003;66627;29.424;-98.496;2023-04-03T10:31:56;32;31;
77515;PMS5003;66627;29.424;-98.496;2023-04-03T10:34:20;34;34;
77515;PMS5003;66627;29.424;-98.496;2023-04-03T10:36:45;31;30;
77515;PMS5003;66627;29.424;-98.496;2023-04-03T10:39:14;34;32;
77515;PMS5003;66627;29.424;-98.496;2023-04-03T10:41:40;31;29;
77515;PMS5003;66627;29.424;-98.496;2023-04-03T10:44:04;32;30;
77515;PMS5003;66627;29.424;-98.496;2023-04-03T10:46:28;34;34;
77515;PMS5003;66627;29.424;-98.496;2023-04-03T10:48:55;32;31;
77515;PMS5003;66627;29.424;-98.496;2023-04-03T10:51:22;32;32;
77515;PMS5003;66627;29.424;-98.496;2023-04-03T10:53:44;38;35;
77515;PMS5003;66627;29.424;-98.496;2023-04-03T10:56:09;36;33;
77515;PMS5003;66627;29.424;-98.496;2023-04-03T10:58:33;29;27;
77515;PMS5003;66627;29.424;-98.496;2023-04-03T11:00:59;35;32;
77515;PMS5003;66627;29.424;-98.496;2023-04-03T11:03:26;37;34;
77515;PMS5003;66627;29.424;-98.496;2023-04-03T11:05:49;31;31;
77515;PMS5003;66627;29.424;-98.496;2023-04-03T11:08:17;38;33;
77515;PMS5003;66627;29.424;-98.496;2023-04-03T11:10:40;34;34;
77515;PMS5003;66627;29.424;-98.496;2023-04-03T11:13:08;33;31;
77515;PMS5003;66627;29.424;-98.496;2023-04-03T11:15:30;31;28;
77515;PMS5003;66627;29.424;-98.496;2023-04-03T11:17:57;33;32;
77515;PMS5003;66627;29.424;-98.496;2023-04-03T11:20:23;33;30;
77515;PMS5003;66627;29.424;-98.496;2023-04-03T11:22:48;32;32;
77515;PMS5003;66627;29.424;-98.496;2023-04-03T11:25:15;32;28;
77515;PMS5003;66627;29.424;-98.496;2023-04-03T11:27:38;31;29;
77515;PMS5003;66627;29.424;-98.496;2023-04-03T11:30:03;33;32;
77515;PMS5003;66627;29.424;-98.496;2023-04-03T11:32:32;31;27;
77515;PMS5003;66627;29.424;-98.496;2023-04-03T11:34:53;34;33;
77515;PMS5003;66627;29.424;-98.496;2023-04-03T11:39:48;33;31;
77515;PMS5003;66627;29.424;-98.496;2023-04-03T11:42:13;42;38;
77515;PMS5003;66627;29.424;-98.496;2023-04-03T11:44:36;39;36;
77515;PMS5003;66627;29.424;-98.496;2023-04-03T11:47:02;38;33;
77515;PMS5003;66627;29.424;-98.496;2023-04-03T11:51:52;35;31;
77515;PMS5003;66627;29.424;-98.496;2023-04-03T11:56:44;32;32;
77515;PMS5003;66627;29.424;-98.496;2023-04-03T11:59:16;34;32;
77515;PMS5003;66627;29.424;-98.496;2023-04-03T12:01:42;33;32;
77515;PMS5003;66627;29.424;-98.496;2023-04-03T12:04:08;31;30;
77515;PMS5003;66627;29.424;-98.496;2023-04-03T12:08:51;33;32;
77515;PMS5003;66627;29.424;-98.496;2023-04-03T12:11:22;33;31;
77515;PMS5003;66627;29.424;-98.496;2023-04-03T12:13:43;30;28;
77515;PMS5003;66627;29.424;-98.496;2023-04-03T12:16:18;36;36;
77515;PMS5003;66627;29.424;-98.496;2023-04-03T12:20:58;40;39;
77515;PMS5003;66627;29.424;-98.496;2023-04-03T12:23:27;42;37;
77515;PMS5003;66627;29.424;-98.496;2023-04-03T12:25:50;37;35;
77515;PMS5003;66627;29.424;-98.496;2023-04-03T12:28:15;41;38;
77515;PMS5003;66627;29.424;-98.496;2023-04-03T12:30:40;40;37;
77515;PMS5003;66627;29.424;-98.496;2023-04-03T12:33:14;38;34;
77515;PMS5003;66627;29.424;-98.496;2023-04-03T12:35:35;33;33;
77515;PMS5003;66627;29.424;-98.496;2023-04-03T12:40:25;34;34;
77515;PMS5003;66627;29.424;-98.496;2023-04-03T12:42:58;30;29;
77515;PMS5003;66627;29.424;-98.496;2023-04-03T12:45:17;43;35;
77515;PMS5003;66627;29.424;-98.496;2023-04-03T12:47:40;32;31;
77515;PMS5003;66627;29.424;-98.496;2023-04-03T12:52:32;35;30;
77515;PMS5003;66627;29.424;-98.496;2023-04-03T12:54:56;36;36;
77515;PMS5003;66627;29.424;-98.496;2023-04-03T12:57:24;32;31;
77515;PMS5003;66627;29.424;-98.496;2023-04-03T12:59:48;32;31;
77515;PMS5003;66627;29.424;-98.496;2023-04-03T13:02:19;34;32;
77515;PMS5003;66627;29.424;-98.496;2023-04-03T13:04:38;25;25;
77515;PMS5003;66627;29.424;-98.496;2023-04-03T13:07:03;37;34;
77515;PMS5003;66627;29.424;-98.496;2023-04-03T13:09:30;41;34;
77515;PMS5003;66627;29.424;-98.496;2023-04-03T13:11:55;36;36;
77515;PMS5003;66627;29.424;-98.496;2023-04-03T13:14:20;31;31;
77515;PMS5003;66627;29.424;-98.496;2023-04-03T13:21:35;36;36;
77515;PMS5003;66627;29.424;-98.496;2023-04-03T13:24:01;35;30;
77515;PMS5003;66627;29.424;-98.496;2023-04-03T13:26:28;38;38;
77515;PMS5003;66627;29.424;-98.496;2023-04-03T13:28:52;37;34;
77515;PMS5003;66627;29.424;-98.496;2023-04-03T13:31:19;42;37;
77515;PMS5003;66627;29.424;-98.496;2023-04-03T13:33:50;39;36;
77515;PMS5003;66627;29.424;-98.496;2023-04-03T13:36:11;31;29;
77515;PMS5003;66627;29.424;-98.496;2023-04-03T13:38:35;46;39;
77515;PMS5003;66627;29.424;-98.496;2023-04-03T13:41:01;37;36;
77515;PMS5003;66627;29.424;-98.496;2023-04-03T13:43:26;32;32;
77515;PMS5003;66627;29.424;-98.496;2023-04-03T13:45:55;35;34;
77515;PMS5003;66627;29.424;-98.496;2023-04-03T13:48:17;36;35;
77515;PMS5003;66627;29.424;-98.496;2023-04-03T13:50:51;36;35;
77515;PMS5003;66627;29.424;-98.496;2023-04-03T13:53:09;33;32;
77515;PMS5003;66627;29.424;-98.496;2023-04-03T13:55:34;36;35;
77515;PMS5003;66627;29.424;-98.496;2023-04-03T13:57:59;38;33;
77515;PMS5003;66627;29.424;-98.496;2023-04-03T14:00:29;40;37;
77515;PMS5003;66627;29.424;-98.496;2023-04-03T14:02:49;38;36;
77515;PMS5003;66627;29.424;-98.496;2023-04-03T14:05:15;37;35;
77515;PMS5003;66627;29.424;-98.496;2023-04-03T14:07:40;44;39;
77515;PMS5003;66627;29.424;-98.496;2023-04-03T14:10:07;34;34;
77515;PMS5003;66627;29.424;-98.496;2023-04-03T14:12:33;41;40;
77515;PMS5003;66627;29.424;-98.496;2023-04-03T14:14:56;37;35;
77515;PMS5003;66627;29.424;-98.496;2023-04-03T14:17:23;44;36;
77515;PMS5003;66627;29.424;-98.496;2023-04-03T14:19:48;35;34;
77515;PMS5003;66627;29.424;-98.496;2023-04-03T14:22:14;42;39;
77515;PMS5003;66627;29.424;-98.496;2023-04-03T14:24:39;42;37;
77515;PMS5003;66627;29.424;-98.496;2023-04-03T14:27:05;39;37;
77515;PMS5003;66627;29.424;-98.496;2023-04-03T14:29:29;39;38;
77515;PMS5003;66627;29.424;-98.496;2023-04-03T14:31:54;34;31;
77515;PMS5003;66627;29.424;-98.496;2023-04-03T14:34:20;41;36;
77515;PMS5003;66627;29.424;-98.496;2023-04-03T14:36:45;40;36;
77515;PMS5003;66627;29.424;-98.496;2023-04-03T14:39:11;41;37;
77515;PMS5003;66627;29.424;-98.496;2023-04-03T14:41:35;38;36;
77515;PMS5003;66627;29.424;-98.496;2023-04-03T14:44:01;35;34;
77515;PMS5003;66627;29.424;-98.496;2023-04-03T14:46:28;42;39;
77515;PMS5003;66627;29.424;-98.496;2023-04-03T14:48:53;35;32;
77515;PMS5003;66627;29.424;-98.496;2023-04-03T14:51:18;41;38;
77515;PMS5003;66627;29.424;-98.496;2023-04-03T14:53:43;36;35;
77515;PMS5003;66627;29.424;-98.496;2023-04-03T14:56:13;35;35;
77515;PMS5003;66627;29.424;-98.496;2023-04-03T14:58:33;38;32;
77515;PMS5003;66627;29.424;-98.496;2023-04-03T15:00:58;41;37;
77515;PMS5003;66627;29.424;-98.496;2023-04-03T15:03:24;30;28;
77515;PMS5003;66627;29.424;-98.496;2023-04-03T15:05:50;44;40;
77515;PMS5003;66627;29.424;-98.496;2023-04-03T15:08:18;40;37;
77515;PMS5003;66627;29.424;-98.496;2023-04-03T15:10:41;39;37;
77515;PMS5003;66627;29.424;-98.496;2023-04-03T15:13:06;38;36;
77515;PMS5003;66627;29.424;-98.496;2023-04-03T15:15:31;43;36;
77515;PMS5003;66627;29.424;-98.496;2023-04-03T15:17:56;37;35;
77515;PMS5003;66627;29.424;-98.496;2023-04-03T15:20:23;40;35;
77515;PMS5003;66627;29.424;-98.496;2023-04-03T15:22:48;35;30;
77515;PMS5003;66627;29.424;-98.496;2023-04-03T15:25:13;36;36;
77515;PMS5003;66627;29.424;-98.496;2023-04-03T15:27:39;43;37;
77515;PMS5003;66627;29.424;-98.496;2023-04-03T15:30:04;39;36;
77515;PMS5003;66627;29.424;-98.496;2023-04-03T15:32:29;42;35;
77515;PMS5003;66627;29.424;-98.496;2023-04-03T15:34:54;41;40;
77515;PMS5003;66627;29.424;-98.496;2023-04-03T15:37:19;39;37;
77515;PMS5003;66627;29.424;-98.496;2023-04-03T15:39:45;36;34;
77515;PMS5003;66627;29.424;-98.496;2023-04-03T15:42:10;36;35;
77515;PMS5003;66627;29.424;-98.496;2023-04-03T15:44:35;34;32;
77515;PMS5003;66627;29.424;-98.496;2023-04-03T15:47:01;36;36;
77515;PMS5003;66627;29.424;-98.496;2023-04-03T15:49:26;33;32;
77515;PMS5003;66627;29.424;-98.496;2023-04-03T15:51:52;38;34;
77515;PMS5003;66627;29.424;-98.496;2023-04-03T15:54:17;35;34;
77515;PMS5003;66627;29.424;-98.496;2023-04-03T15:56:42;37;37;
77515;PMS5003;66627;29.424;-98.496;2023-04-03T15:59:07;40;36;
77515;PMS5003;66627;29.424;-98.496;2023-04-03T16:01:33;37;35;
77515;PMS5003;66627;29.424;-98.496;2023-04-03T16:03:58;28;27;
77515;PMS5003;66627;29.424;-98.496;2023-04-03T16:06:24;44;34;
77515;PMS5003;66627;29.424;-98.496;2023-04-03T16:08:49;38;35;
77515;PMS5003;66627;29.424;-98.496;2023-04-03T16:11:15;36;31;
77515;PMS5003;66627;29.424;-98.496;2023-04-03T16:13:39;39;39;